Time;durP1;ratioP1;P1;durP2;ratioP2;P2;SDS_P1;SDS_P2;PMS_P1;PMS_P2;Temp;Humidity;BMP_temperature;BMP_pressure;BME280_temperature;BME280_humidity;BME280_pressure;Samples;Min_cycle;Max_cycle;Signal;HPM_P1;HPM_P2
2023/02/02 00:02:02;;;;;;;6.87;2.40;;;6.30;99.90;;;6.63;100.00;98724.88;5043275;28;21104;-76
2023/02/02 00:04:35;;;;;;;10.17;2.93;;;6.20;99.90;;;6.64;100.00;98721.28;5046872;28;20456;-76
2023/02/02 00:07:06;;;;;;;8.60;2.60;;;6.20;99.90;;;6.58;100.00;98733.91;5038916;28;20487;-78
2023/02/02 00:09:36;;;;;;;5.07;1.87;;;6.10;99.90;;;6.59;100.00;98722.53;5043591;28;20462;-76
2023/02/02 00:12:07;;;;;;;4.30;2.23;;;6.10;99.90;;;6.61;100.00;98726.78;5044013;28;20573;-76
2023/02/02 00:14:36;;;;;;;9.83;2.37;;;6.20;99.90;;;6.65;100.00;98725.53;5045011;28;20518;-75
2023/02/02 00:17:09;;;;;;;5.27;2.20;;;6.20;99.90;;;6.66;100.00;98714.19;5043444;28;20472;-75
2023/02/02 00:19:40;;;;;;;4.57;1.90;;;6.20;99.90;;;6.67;100.00;98719.22;5045617;28;20465;-76
2023/02/02 00:22:10;;;;;;;5.37;1.83;;;6.30;99.90;;;6.68;100.00;98718.25;5042237;28;20465;-76
2023/02/02 00:24:41;;;;;;;14.27;2.03;;;6.30;99.90;;;6.70;100.00;98731.13;5044026;28;20990;-76
2023/02/02 00:27:09;;;;;;;4.13;1.90;;;6.30;99.90;;;6.69;100.00;98729.47;5044183;28;20574;-76
2023/02/02 00:29:39;;;;;;;10.33;2.57;;;6.30;99.90;;;6.72;100.00;98736.97;5043312;28;20484;-76
2023/02/02 00:32:09;;;;;;;10.90;2.07;;;6.30;99.90;;;6.72;100.00;98742.16;5040036;28;20464;-76
2023/02/02 00:34:40;;;;;;;11.40;1.97;;;6.30;99.90;;;6.72;100.00;98740.41;5045087;28;20560;-76
2023/02/02 00:37:09;;;;;;;12.40;2.63;;;6.30;99.90;;;6.73;100.00;98741.22;5043067;28;20465;-76
2023/02/02 00:39:38;;;;;;;9.70;2.13;;;6.40;99.90;;;6.75;100.00;98734.09;5044392;28;20468;-77
2023/02/02 00:42:11;;;;;;;2.77;1.20;;;6.40;99.90;;;6.77;100.00;98732.97;5042072;28;20491;-75
2023/02/02 00:47:28;;;;;;;6.50;1.70;;;6.40;99.90;;;6.74;100.00;98733.25;5048354;28;20483;-76
2023/02/02 00:49:59;;;;;;;4.53;1.67;;;6.30;99.90;;;6.73;100.00;98736.03;5046642;28;20465;-76
2023/02/02 00:52:29;;;;;;;5.87;1.73;;;6.30;99.90;;;6.76;100.00;98740.91;5045373;28;20477;-76
2023/02/02 00:55:00;;;;;;;6.83;1.83;;;6.30;99.90;;;6.76;100.00;98730.53;5047550;28;20556;-76
2023/02/02 00:57:30;;;;;;;5.10;1.83;;;6.30;99.90;;;6.80;100.00;98731.88;5046934;28;20461;-76
2023/02/02 00:59:58;;;;;;;4.47;1.50;;;6.40;99.90;;;6.80;100.00;98737.06;5043950;28;20465;-76
2023/02/02 01:02:28;;;;;;;10.83;2.40;;;6.40;99.90;;;6.79;100.00;98725.03;5046294;28;20483;-76
2023/02/02 01:04:58;;;;;;;12.50;2.90;;;6.40;99.90;;;6.79;100.00;98725.84;5045725;28;20465;-76
2023/02/02 01:07:28;;;;;;;4.90;1.13;;;6.40;99.90;;;6.79;100.00;98738.03;5044650;28;20623;-76
2023/02/02 01:09:57;;;;;;;5.10;1.53;;;6.40;99.90;;;6.81;100.00;98743.88;5045554;28;20805;-76
2023/02/02 01:12:26;;;;;;;7.23;2.30;;;6.40;99.90;;;6.81;100.00;98741.28;5045192;28;20469;-75
2023/02/02 01:14:56;;;;;;;12.40;1.90;;;6.40;99.90;;;6.82;100.00;98746.34;5045376;28;20473;-76
2023/02/02 01:17:26;;;;;;;3.73;1.60;;;6.40;99.90;;;6.82;100.00;98737.72;5044590;28;20552;-76
2023/02/02 01:19:58;;;;;;;7.53;1.70;;;6.40;99.90;;;6.84;100.00;98733.19;5045286;28;20464;-76
2023/02/02 01:22:28;;;;;;;8.13;2.10;;;6.40;99.90;;;6.80;100.00;98726.69;5045940;28;21142;-76
2023/02/02 01:24:58;;;;;;;5.80;2.00;;;6.30;99.90;;;6.81;100.00;98733.50;5045688;28;20464;-76
2023/02/02 01:27:27;;;;;;;4.50;1.97;;;6.30;99.90;;;6.78;100.00;98726.81;5046644;28;20559;-76
2023/02/02 01:29:56;;;;;;;6.50;1.97;;;6.40;99.90;;;6.77;100.00;98730.38;5047471;28;20856;-76
2023/02/02 01:32:26;;;;;;;5.40;1.90;;;6.30;99.90;;;6.77;100.00;98730.38;5044584;28;20523;-76
2023/02/02 01:34:55;;;;;;;2.30;1.50;;;6.40;99.90;;;6.77;100.00;98738.16;5042874;28;20454;-76
2023/02/02 01:37:27;;;;;;;9.83;2.00;;;6.30;99.90;;;6.78;100.00;98732.00;5045202;28;20540;-76
2023/02/02 01:39:57;;;;;;;3.33;1.43;;;6.30;99.90;;;6.79;100.00;98732.84;5044865;28;20457;-76
2023/02/02 01:42:27;;;;;;;2.53;1.90;;;6.30;99.90;;;6.79;100.00;98738.03;5043984;28;20533;-76
2023/02/02 01:45:25;;;;;;;5.13;1.83;;;6.40;99.90;;;6.77;100.00;98737.38;5042892;28;20467;-76
2023/02/02 01:47:58;;;;;;;6.07;1.80;;;6.40;99.90;;;6.75;100.00;98742.69;5043121;28;20492;-76
2023/02/02 01:50:32;;;;;;;4.90;1.90;;;6.30;99.90;;;6.75;100.00;98745.28;5042348;28;20465;-76
2023/02/02 01:53:07;;;;;;;6.17;2.03;;;6.40;99.90;;;6.75;100.00;98744.47;5045013;28;20467;-76
2023/02/02 01:55:41;;;;;;;6.30;1.93;;;6.30;99.90;;;6.75;100.00;98741.88;5043784;28;20469;-76
2023/02/02 01:58:16;;;;;;;8.10;2.00;;;6.30;99.90;;;6.77;100.00;98747.75;5042687;28;20491;-76
2023/02/02 02:00:45;;;;;;;6.37;1.57;;;6.40;99.90;;;6.75;100.00;98750.50;5044066;28;20464;-76
2023/02/02 02:03:18;;;;;;;16.70;1.97;;;6.40;99.90;;;6.73;100.00;98744.63;5043927;28;20461;-76
2023/02/02 02:05:55;;;;;;;10.60;2.07;;;6.30;99.90;;;6.74;100.00;98748.84;5044060;28;20549;-76
2023/02/02 02:08:30;;;;;;;10.37;2.20;;;6.30;99.90;;;6.74;100.00;98743.66;5045046;28;20484;-76
2023/02/02 02:11:01;;;;;;;4.87;1.47;;;6.30;99.90;;;6.75;100.00;98739.28;5046028;28;20511;-76
2023/02/02 02:16:50;;;;;;;6.30;2.40;;;6.30;99.90;;;6.78;100.00;98751.97;5043912;28;21282;-76
2023/02/02 02:27:33;;;;;;;4.60;1.40;;;6.40;99.90;;;6.74;100.00;98745.44;5027031;28;20871;-76
2023/02/02 02:30:36;;;;;;;11.53;1.93;;;6.20;99.90;;;6.71;100.00;98743.13;5040389;28;20477;-76
2023/02/02 02:33:15;;;;;;;5.50;1.70;;;6.30;99.90;;;6.74;100.00;98750.63;5044902;28;20545;-76
2023/02/02 02:35:55;;;;;;;6.47;1.57;;;6.30;99.90;;;6.77;100.00;98751.16;5043106;28;20469;-76
2023/02/02 02:38:35;;;;;;;7.00;1.83;;;6.30;99.90;;;6.74;100.00;98767.03;5045029;28;20559;-76
2023/02/02 02:41:11;;;;;;;5.83;1.80;;;6.30;99.90;;;6.76;100.00;98759.94;5044213;28;20579;-76
2023/02/02 02:43:48;;;;;;;2.63;1.60;;;6.30;99.90;;;6.79;100.00;98757.03;5043549;28;20464;-76
2023/02/02 02:46:19;;;;;;;3.33;1.90;;;6.40;99.90;;;6.77;100.00;98755.56;5043968;28;20457;-76
2023/02/02 02:48:50;;;;;;;5.53;2.20;;;6.40;99.90;;;6.74;100.00;98761.03;5042984;28;20513;-76
2023/02/02 02:51:49;;;;;;;11.90;1.90;;;6.30;99.90;;;6.76;100.00;98753.91;5043811;28;20975;-76
2023/02/02 02:54:25;;;;;;;8.40;1.70;;;6.30;99.90;;;6.77;100.00;98764.16;5044090;28;20461;-76
2023/02/02 02:57:27;;;;;;;9.40;1.80;;;6.30;99.90;;;6.79;100.00;98766.63;5044015;28;20460;-76
2023/02/02 03:00:11;;;;;;;3.77;1.50;;;6.30;99.90;;;6.80;100.00;98770.88;5041014;28;20470;-76
2023/02/02 03:02:56;;;;;;;4.97;1.70;;;6.40;99.90;;;6.81;100.00;98759.47;5044854;28;20457;-76
2023/02/02 03:05:44;;;;;;;9.70;2.00;;;6.40;99.90;;;6.81;100.00;98762.09;5043528;28;20461;-76
2023/02/02 03:08:24;;;;;;;9.70;2.00;;;6.40;99.90;;;6.80;100.00;98761.28;5041825;28;20461;-76
2023/02/02 03:10:58;;;;;;;4.93;1.83;;;6.40;99.90;;;6.82;100.00;98758.53;5042240;28;20457;-76
2023/02/02 03:13:31;;;;;;;8.17;2.27;;;6.40;99.90;;;6.80;100.00;98763.06;5043776;28;20457;-76
2023/02/02 03:16:02;;;;;;;2.07;1.60;;;6.40;99.90;;;6.82;100.00;98767.16;5043546;28;20465;-76
2023/02/02 03:18:33;;;;;;;9.73;1.80;;;6.40;99.90;;;6.83;100.00;98761.00;5042804;28;20944;-76
2023/02/02 03:21:06;;;;;;;13.40;1.97;;;6.40;99.90;;;6.83;100.00;98758.41;5043431;28;20468;-76
2023/02/02 03:23:37;;;;;;;2.63;1.30;;;6.40;99.90;;;6.82;100.00;98743.75;5041653;28;20496;-76
2023/02/02 03:26:07;;;;;;;11.37;1.70;;;6.40;99.90;;;6.78;100.00;98739.81;5042855;28;20929;-76
2023/02/02 03:28:37;;;;;;;3.63;1.60;;;6.40;99.90;;;6.76;100.00;98746.13;5043475;28;20492;-76
2023/02/02 03:31:07;;;;;;;10.60;1.90;;;6.20;99.90;;;6.79;100.00;98746.66;5044082;28;20457;-76
2023/02/02 03:33:39;;;;;;;3.73;1.87;;;6.20;99.90;;;6.81;100.00;98744.72;5042577;28;20472;-76
2023/02/02 03:36:10;;;;;;;10.27;1.90;;;6.30;99.90;;;6.82;100.00;98750.72;5043519;28;20473;-76
2023/02/02 03:38:39;;;;;;;13.63;2.20;;;6.30;99.90;;;6.86;100.00;98747.69;5043953;28;20465;-76
2023/02/02 03:41:10;;;;;;;4.50;1.73;;;6.40;99.90;;;6.86;100.00;98752.91;5043736;28;20486;-76
2023/02/02 03:43:40;;;;;;;11.40;2.50;;;6.40;99.90;;;6.88;100.00;98755.34;5042113;28;20465;-76
2023/02/02 03:46:09;;;;;;;8.70;2.27;;;6.40;99.90;;;6.87;100.00;98761.53;5042442;28;20468;-76
2023/02/02 03:48:40;;;;;;;9.10;2.43;;;6.40;99.90;;;6.87;100.00;98762.31;5042474;28;20475;-76
2023/02/02 03:51:13;;;;;;;7.70;1.73;;;6.40;99.90;;;6.88;100.00;98771.75;5041945;28;20981;-76
2023/02/02 03:53:46;;;;;;;6.40;2.03;;;6.40;99.90;;;6.88;100.00;98768.34;5042714;28;20460;-76
2023/02/02 03:56:15;;;;;;;3.97;2.00;;;6.40;99.90;;;6.89;100.00;98770.81;5041649;28;20477;-76
2023/02/02 03:58:46;;;;;;;8.40;2.30;;;6.50;99.90;;;6.88;100.00;98750.13;5044468;28;20563;-76
2023/02/02 04:01:16;;;;;;;10.23;2.03;;;6.40;99.90;;;6.88;100.00;98753.56;5039943;28;20470;-76
2023/02/02 04:03:46;;;;;;;3.83;1.80;;;6.40;99.90;;;6.89;100.00;98762.19;5041893;28;20514;-76
2023/02/02 04:06:19;;;;;;;3.60;1.60;;;6.40;99.90;;;6.84;100.00;98743.59;5044023;28;20457;-76
2023/02/02 04:08:48;;;;;;;6.63;2.33;;;6.40;99.90;;;6.84;100.00;98748.78;5042472;28;20464;-76
2023/02/02 04:11:17;;;;;;;6.30;1.90;;;6.40;99.90;;;6.85;100.00;98760.84;5037304;28;20468;-73
2023/02/02 04:13:47;;;;;;;5.60;2.50;;;6.40;99.90;;;6.87;100.00;98770.13;5042349;28;20457;-76
2023/02/02 04:16:16;;;;;;;4.50;1.60;;;6.40;99.90;;;6.87;100.00;98764.91;5043665;28;20527;-76
2023/02/02 04:18:46;;;;;;;7.93;2.20;;;6.40;99.90;;;6.86;100.00;98768.50;5044159;28;20513;-76
2023/02/02 04:21:18;;;;;;;9.90;1.80;;;6.40;99.90;;;6.89;100.00;98782.97;5043765;28;20515;-76
2023/02/02 04:23:48;;;;;;;7.20;1.83;;;6.50;99.90;;;6.87;100.00;98777.13;5043847;28;20518;-76
2023/02/02 04:26:17;;;;;;;11.60;2.30;;;6.40;99.90;;;6.84;100.00;98783.41;5044286;28;20540;-76
2023/02/02 04:28:47;;;;;;;31.07;13.60;;;6.40;99.90;;;6.86;100.00;98773.69;5042673;28;20552;-73
2023/02/02 04:31:17;;;;;;;9.93;2.30;;;6.50;99.90;;;6.83;100.00;98778.38;5043314;28;20583;-76
2023/02/02 04:33:47;;;;;;;4.80;1.73;;;6.30;99.90;;;6.83;100.00;98778.38;5042804;28;21086;-77
2023/02/02 04:36:20;;;;;;;6.20;2.17;;;6.40;99.90;;;6.82;100.00;98779.31;5041206;28;20473;-76
2023/02/02 04:38:50;;;;;;;4.10;1.60;;;6.30;99.90;;;6.82;100.00;98795.75;5047716;28;20829;-77
2023/02/02 04:41:21;;;;;;;8.00;2.07;;;6.30;99.90;;;6.86;100.00;98793.66;5044374;28;20516;-76
2023/02/02 04:43:51;;;;;;;9.33;1.93;;;6.30;99.90;;;6.86;100.00;98799.69;5046295;28;20461;-76
2023/02/02 04:46:21;;;;;;;6.83;1.90;;;6.40;99.90;;;6.86;100.00;98791.06;5043569;28;20472;-76
2023/02/02 04:48:51;;;;;;;9.23;2.33;;;6.30;99.90;;;6.88;100.00;98791.72;5044151;28;20470;-77
2023/02/02 04:51:22;;;;;;;11.73;2.13;;;6.40;99.90;;;6.89;100.00;98788.19;5045522;28;20580;-76
2023/02/02 04:53:53;;;;;;;10.23;1.70;;;6.40;99.90;;;6.89;100.00;98796.78;5045324;28;20542;-76
2023/02/02 04:56:23;;;;;;;14.37;2.30;;;6.40;99.90;;;6.89;100.00;98791.59;5046204;28;20469;-76
2023/02/02 04:58:54;;;;;;;5.50;1.90;;;6.40;99.90;;;6.90;100.00;98798.44;5044530;28;20523;-76
2023/02/02 05:01:24;;;;;;;5.07;2.10;;;6.40;99.90;;;6.86;100.00;98793.66;5044333;28;20954;-76
2023/02/02 05:03:54;;;;;;;5.63;2.50;;;6.40;99.90;;;6.86;100.00;98809.25;5040963;28;20468;-76
2023/02/02 05:06:26;;;;;;;7.73;2.23;;;6.40;99.90;;;6.88;100.00;98809.94;5043956;28;21249;-76
2023/02/02 05:08:58;;;;;;;40.33;17.77;;;6.40;99.90;;;6.88;100.00;98815.94;5043197;28;20540;-77
2023/02/02 05:11:29;;;;;;;14.50;3.50;;;6.40;99.90;;;6.90;100.00;98816.63;5040101;28;20999;-76
2023/02/02 05:13:59;;;;;;;9.00;2.63;;;6.50;99.90;;;6.90;100.00;98821.00;5041306;28;20457;-77
2023/02/02 05:16:27;;;;;;;11.20;2.17;;;6.30;99.90;;;6.91;100.00;98828.66;5042153;28;20560;-76
2023/02/02 05:18:58;;;;;;;4.90;1.90;;;6.40;99.90;;;6.90;100.00;98823.63;5038747;28;20462;-76
2023/02/02 05:21:29;;;;;;;4.33;2.53;;;6.40;99.90;;;6.90;100.00;98821.00;5041714;28;20559;-77
2023/02/02 05:24:00;;;;;;;20.37;9.00;;;6.40;99.90;;;6.92;100.00;98819.91;5040967;28;20550;-76
2023/02/02 05:26:29;;;;;;;8.30;2.47;;;6.40;99.90;;;6.95;100.00;98826.59;5041891;28;20460;-77
2023/02/02 05:28:59;;;;;;;10.97;1.77;;;6.50;99.90;;;6.90;100.00;98826.22;5043846;28;20511;-77
2023/02/02 05:31:28;;;;;;;12.13;3.57;;;6.40;99.90;;;6.90;100.00;98826.22;5041308;28;20571;-77
2023/02/02 05:33:59;;;;;;;10.10;2.20;;;6.40;99.90;;;6.90;100.00;98828.81;5046300;28;20516;-76
2023/02/02 05:36:31;;;;;;;6.83;2.30;;;6.40;99.90;;;6.92;100.00;98830.31;5044402;28;20477;-77
2023/02/02 05:39:01;;;;;;;4.93;1.47;;;6.50;99.90;;;6.87;100.00;98834.31;5043181;28;21152;-76
2023/02/02 05:41:31;;;;;;;67.30;21.83;;;6.50;99.90;;;6.84;100.00;98827.59;5039969;28;20897;-80
2023/02/02 05:44:02;;;;;;;3.43;1.87;;;6.40;99.90;;;6.86;100.00;98830.88;5039199;28;20531;-77
2023/02/02 05:46:31;;;;;;;3.90;1.37;;;6.40;99.90;;;6.89;100.00;98842.75;5039890;28;20473;-77
2023/02/02 05:49:03;;;;;;;4.33;1.80;;;6.40;99.90;;;6.89;100.00;98838.38;5044300;28;20460;-78
2023/02/02 05:51:41;;;;;;;10.87;2.20;;;6.50;99.90;;;6.88;100.00;98834.16;5046673;28;20496;-78
2023/02/02 05:54:16;;;;;;;4.33;1.87;;;6.40;99.90;;;6.89;100.00;98830.59;5046271;28;20520;-78
2023/02/02 05:56:46;;;;;;;3.83;1.70;;;6.50;99.90;;;6.88;100.00;98833.31;5046071;28;20468;-78
2023/02/02 05:59:16;;;;;;;12.90;2.07;;;6.40;99.90;;;6.88;100.00;98821.16;5045884;28;20480;-79
2023/02/02 06:01:46;;;;;;;6.40;2.03;;;6.50;99.90;;;6.81;100.00;98816.66;5047264;28;20469;-78
2023/02/02 06:04:16;;;;;;;11.53;1.80;;;6.30;99.90;;;6.87;100.00;98829.09;5046101;28;21062;-78
2023/02/02 06:06:48;;;;;;;4.77;1.70;;;6.40;99.90;;;6.89;100.00;98834.97;5045077;28;20552;-78
2023/02/02 06:09:18;;;;;;;3.53;1.47;;;6.40;99.90;;;6.90;100.00;98841.81;5045467;28;20548;-78
2023/02/02 06:11:49;;;;;;;2.67;1.63;;;6.40;99.90;;;6.88;100.00;98846.31;5046874;28;21193;-78
2023/02/02 06:14:19;;;;;;;7.73;1.97;;;6.50;99.90;;;6.88;100.00;98848.91;5044328;28;20457;-78
2023/02/02 06:16:48;;;;;;;9.43;1.90;;;6.40;99.90;;;6.88;100.00;98860.13;5045610;28;20495;-77
2023/02/02 06:19:19;;;;;;;11.33;1.93;;;6.40;99.90;;;6.91;100.00;98874.63;5045089;28;20469;-78
2023/02/02 06:21:50;;;;;;;3.23;1.50;;;6.50;99.90;;;6.91;100.00;98875.44;5044788;28;20469;-78
2023/02/02 06:24:21;;;;;;;6.70;1.60;;;6.50;99.90;;;6.89;100.00;98879.97;5045635;28;20458;-77
2023/02/02 06:26:52;;;;;;;8.07;2.03;;;6.40;99.90;;;6.87;100.00;98878.50;5044794;28;20989;-78
2023/02/02 06:29:21;;;;;;;2.47;1.30;;;6.40;99.90;;;6.89;100.00;98886.97;5046074;28;20514;-78
2023/02/02 06:31:52;;;;;;;2.53;1.10;;;6.40;99.90;;;6.90;100.00;98888.59;5046285;28;20499;-78
2023/02/02 06:34:22;;;;;;;3.93;1.60;;;6.40;99.90;;;6.95;100.00;98873.38;5045518;28;20460;-78
2023/02/02 06:36:55;;;;;;;6.73;2.07;;;6.50;99.90;;;6.89;100.00;98860.97;5044327;28;20469;-78
2023/02/02 06:39:26;;;;;;;6.97;1.90;;;6.40;99.90;;;6.87;100.00;98847.31;5045139;28;20505;-78
2023/02/02 06:41:55;;;;;;;9.63;1.40;;;6.40;99.90;;;6.90;100.00;98852.22;5046507;28;20523;-78
2023/02/02 06:44:26;;;;;;;3.90;1.63;;;6.50;99.90;;;6.89;100.00;98846.19;5044127;28;20473;-78
2023/02/02 06:46:55;;;;;;;7.20;1.60;;;6.40;99.90;;;6.90;100.00;98834.00;5046199;28;20461;-78
2023/02/02 06:49:24;;;;;;;3.87;1.50;;;6.40;99.90;;;6.90;100.00;98831.41;5045007;28;20495;-77
2023/02/02 06:51:57;;;;;;;5.93;1.47;;;6.40;99.90;;;6.88;100.00;98830.72;5043693;28;20497;-78
2023/02/02 06:54:27;;;;;;;9.63;2.10;;;6.40;99.90;;;6.85;100.00;98838.81;5044683;28;20566;-78
2023/02/02 06:56:58;;;;;;;17.40;2.03;;;6.30;99.90;;;6.89;100.00;98840.16;5044736;28;20472;-78
2023/02/02 06:59:27;;;;;;;6.30;1.77;;;6.40;99.90;;;6.88;100.00;98836.75;5042546;28;20481;-79
2023/02/02 07:01:57;;;;;;;6.90;1.67;;;6.40;99.90;;;6.91;100.00;98841.66;5044127;28;20568;-78
2023/02/02 07:04:27;;;;;;;12.60;1.60;;;6.40;99.90;;;6.96;100.00;98841.22;5042916;28;21058;-78
2023/02/02 07:06:59;;;;;;;3.00;1.50;;;6.50;99.90;;;6.94;100.00;98843.97;5044386;28;20463;-78
2023/02/02 07:09:31;;;;;;;3.23;1.60;;;6.50;99.90;;;6.93;100.00;98857.13;5044723;28;20469;-78
2023/02/02 07:12:02;;;;;;;5.40;1.70;;;6.40;99.90;;;6.92;100.00;98855.47;5045548;28;20552;-78
2023/02/02 07:14:34;;;;;;;5.17;1.80;;;6.40;99.90;;;6.95;100.00;98857.78;5043372;28;20552;-78
2023/02/02 07:17:03;;;;;;;4.07;1.60;;;6.50;99.90;;;6.90;100.00;98867.81;5044844;28;20449;-78
2023/02/02 07:19:33;;;;;;;16.30;2.70;;;6.40;99.90;;;6.93;100.00;98873.53;5044305;28;20558;-78
2023/02/02 07:22:04;;;;;;;8.80;3.43;;;6.40;99.90;;;6.93;100.00;98877.91;5043326;28;20497;-78
2023/02/02 07:24:36;;;;;;;5.53;1.60;;;6.40;99.90;;;6.98;100.00;98881.72;5043634;28;20519;-78
2023/02/02 07:27:06;;;;;;;5.80;1.97;;;6.40;99.90;;;6.99;100.00;98885.13;5045608;28;20551;-78
2023/02/02 07:29:37;;;;;;;8.50;1.80;;;6.40;99.90;;;7.02;100.00;98887.44;5045655;28;20940;-78
2023/02/02 07:32:06;;;;;;;3.07;1.70;;;6.50;99.90;;;7.04;100.00;98896.75;5042860;28;20500;-78
2023/02/02 07:34:41;;;;;;;7.53;1.80;;;6.50;99.90;;;7.04;100.00;98911.53;5044721;28;21106;-78
2023/02/02 07:37:13;;;;;;;2.50;1.40;;;6.50;99.90;;;7.07;100.00;98916.44;5044481;28;20453;-80
2023/02/02 07:39:43;;;;;;;3.83;1.57;;;6.60;99.90;;;7.06;100.00;98927.81;5042968;28;20460;-78
2023/02/02 07:42:13;;;;;;;5.43;1.87;;;6.60;99.90;;;7.06;100.00;98925.19;5043159;28;20528;-78
2023/02/02 07:44:43;;;;;;;3.30;1.50;;;6.60;99.90;;;7.04;100.00;98933.16;5042572;28;20494;-78
2023/02/02 07:47:12;;;;;;;15.07;2.20;;;6.60;99.90;;;7.01;100.00;98930.03;5047395;28;20463;-78
2023/02/02 07:49:44;;;;;;;6.53;1.90;;;6.50;99.90;;;6.97;100.00;98934.69;5045994;28;20468;-78
2023/02/02 07:52:14;;;;;;;5.87;1.50;;;6.40;99.90;;;7.01;100.00;98932.63;5048842;28;21052;-78
2023/02/02 07:54:44;;;;;;;5.00;1.60;;;6.50;99.90;;;7.01;100.00;98930.03;5047574;28;20480;-78
2023/02/02 07:57:16;;;;;;;3.90;1.63;;;6.50;99.90;;;6.99;100.00;98935.34;5048564;28;20489;-78
2023/02/02 07:59:49;;;;;;;10.20;1.60;;;6.50;99.90;;;6.98;100.00;98927.69;5049494;28;20507;-78
2023/02/02 08:02:20;;;;;;;4.80;1.70;;;6.50;99.90;;;6.99;100.00;98931.94;5047940;28;20466;-78
2023/02/02 08:04:50;;;;;;;5.13;1.40;;;6.50;99.90;;;7.03;100.00;98936.72;5048211;28;20462;-77
2023/02/02 08:07:23;;;;;;;12.40;1.57;;;6.60;99.90;;;7.01;100.00;98936.03;5047160;28;20972;-78
2023/02/02 08:09:54;;;;;;;2.83;1.60;;;6.60;99.90;;;7.04;100.00;98937.53;5048515;28;20460;-78
2023/02/02 08:12:25;;;;;;;9.93;1.73;;;6.70;99.90;;;7.05;100.00;98954.75;5045364;28;20493;-78
2023/02/02 08:14:57;;;;;;;12.30;2.00;;;6.60;99.90;;;7.05;100.00;98939.16;5047389;28;20457;-78
2023/02/02 08:17:28;;;;;;;7.50;2.17;;;6.60;99.90;;;7.05;100.00;98928.75;5048385;28;20816;-78
2023/02/02 08:19:58;;;;;;;8.13;1.70;;;6.70;99.90;;;7.05;100.00;98929.59;5047401;28;21032;-78
2023/02/02 08:22:31;;;;;;;9.93;1.83;;;6.60;99.90;;;7.06;100.00;98912.19;5047225;28;20465;-77
2023/02/02 08:25:02;;;;;;;4.70;1.70;;;6.60;99.90;;;7.08;100.00;98913.69;5047859;28;20812;-78
2023/02/02 08:27:32;;;;;;;6.83;1.80;;;6.70;99.90;;;7.10;100.00;98916.16;5047780;28;20489;-78
2023/02/02 08:30:08;;;;;;;5.30;1.60;;;6.70;99.90;;;7.09;100.00;98917.94;5047658;28;20544;-78
2023/02/02 08:32:39;;;;;;;3.37;1.87;;;6.70;99.90;;;7.09;100.00;98920.53;5047758;28;20500;-78
2023/02/02 08:35:10;;;;;;;9.43;1.40;;;6.70;99.90;;;7.13;100.00;98928.88;5047964;28;21582;-78
2023/02/02 08:37:41;;;;;;;3.33;1.37;;;6.70;99.90;;;7.13;100.00;98925.44;5048330;28;20461;-78
2023/02/02 08:40:13;;;;;;;8.33;1.93;;;6.70;99.90;;;7.13;100.00;98921.06;5047559;28;20486;-78
2023/02/02 08:42:45;;;;;;;3.97;1.97;;;6.70;99.90;;;7.16;100.00;98931.19;5048443;28;20460;-78
2023/02/02 08:45:15;;;;;;;9.10;1.83;;;6.70;99.90;;;7.18;100.00;98934.47;5048766;28;20492;-78
2023/02/02 08:48:07;;;;;;;5.47;1.40;;;6.70;99.90;;;7.20;100.00;98942.94;5046844;28;20516;-78
2023/02/02 08:50:41;;;;;;;4.80;1.80;;;6.70;99.90;;;7.18;100.00;98939.69;5047072;28;20472;-78
2023/02/02 08:53:14;;;;;;;4.90;2.07;;;6.70;99.90;;;7.19;100.00;98933.50;5047036;28;20562;-78
2023/02/02 08:55:45;;;;;;;3.97;1.63;;;6.70;99.90;;;7.16;100.00;98933.78;5048548;28;20974;-78
2023/02/02 08:58:15;;;;;;;11.17;1.70;;;6.60;99.90;;;7.19;100.00;98930.88;5047037;28;20513;-78
2023/02/02 09:00:47;;;;;;;3.67;1.60;;;6.70;99.90;;;7.21;100.00;98933.34;5048272;28;20465;-78
2023/02/02 09:03:17;;;;;;;7.20;1.97;;;6.70;99.90;;;7.22;100.00;98930.59;5048663;28;20461;-78
2023/02/02 09:05:47;;;;;;;6.13;1.50;;;6.80;99.90;;;7.22;100.00;98932.41;5048123;28;20469;-78
2023/02/02 09:08:21;;;;;;;9.83;1.70;;;6.80;99.90;;;7.22;100.00;98935.81;5048071;28;20462;-78
2023/02/02 09:10:51;;;;;;;5.17;1.60;;;6.80;99.90;;;7.22;100.00;98956.59;5046668;28;20453;-78
2023/02/02 09:13:22;;;;;;;10.83;2.20;;;6.80;99.90;;;7.22;100.00;98948.00;5046872;28;20497;-78
2023/02/02 09:15:53;;;;;;;5.60;1.13;;;6.80;99.90;;;7.22;100.00;98948.81;5046982;28;20548;-78
2023/02/02 09:18:23;;;;;;;8.37;1.77;;;6.80;99.90;;;7.20;100.00;98955.94;5047205;28;20468;-77
2023/02/02 09:20:54;;;;;;;18.43;2.53;;;6.70;99.90;;;7.20;100.00;98963.75;5045924;28;20469;-78
2023/02/02 09:23:25;;;;;;;9.37;2.50;;;6.60;99.90;;;7.21;100.00;98969.78;5046727;28;20461;-78
2023/02/02 09:25:56;;;;;;;8.90;2.20;;;6.60;99.90;;;7.25;100.00;98966.75;5046968;28;20544;-78
2023/02/02 09:28:27;;;;;;;2.80;1.77;;;6.80;99.90;;;7.25;100.00;98969.34;5046579;28;20535;-78
2023/02/02 09:31:02;;;;;;;5.37;1.83;;;6.80;99.90;;;7.24;100.00;98970.31;5046042;28;20541;-78
2023/02/02 09:33:31;;;;;;;6.13;1.43;;;6.70;99.90;;;7.25;100.00;98969.34;5045617;28;20525;-78
2023/02/02 09:36:07;;;;;;;4.33;1.30;;;6.70;99.90;;;7.26;100.00;98962.34;5046455;28;20465;-77
2023/02/02 09:38:39;;;;;;;2.93;1.60;;;6.80;99.90;;;7.25;100.00;98963.31;5045347;28;20543;-78
2023/02/02 09:42:27;;;;;;;4.13;1.50;;;6.70;99.90;;;7.21;100.00;98973.19;5045495;28;20852;-78
2023/02/02 09:45:17;;;;;;;8.57;2.00;;;6.60;99.90;;;7.21;100.00;98964.56;5013998;28;20937;-77
2023/02/02 09:48:08;;;;;;;6.50;1.67;;;6.60;99.90;;;7.27;100.00;98980.41;5043627;28;20461;-77
2023/02/02 09:50:51;;;;;;;4.53;1.37;;;6.70;99.90;;;7.26;100.00;98994.38;5043243;28;20914;-78
2023/02/02 09:54:00;;;;;;;4.60;1.50;;;6.80;99.90;;;7.27;100.00;98985.63;5046704;28;20504;-78
2023/02/02 09:56:39;;;;;;;6.80;1.80;;;6.80;99.90;;;7.28;100.00;98989.06;5045686;28;21225;-78
2023/02/02 09:59:20;;;;;;;12.43;1.73;;;6.80;99.90;;;7.27;100.00;98988.22;5046648;28;20456;-78
2023/02/02 10:01:57;;;;;;;1.80;1.00;;;6.70;99.90;;;7.28;100.00;99008.09;5046683;28;20859;-78
2023/02/02 10:04:35;;;;;;;8.10;1.77;;;6.80;99.90;;;7.34;100.00;99002.31;5046803;28;20468;-78
2023/02/02 10:07:12;;;;;;;2.87;1.13;;;6.90;99.90;;;7.37;100.00;99006.41;5047019;28;20505;-78
2023/02/02 10:09:50;;;;;;;4.10;1.70;;;6.90;99.90;;;7.34;100.00;98999.69;5045971;28;20464;-78
2023/02/02 10:12:33;;;;;;;4.53;1.40;;;6.90;99.90;;;7.32;100.00;99003.41;5043716;28;20706;-78
2023/02/02 10:15:17;;;;;;;5.87;1.30;;;6.80;99.90;;;7.32;100.00;99014.66;5046254;28;20473;-78
2023/02/02 10:17:55;;;;;;;8.57;1.60;;;6.80;99.90;;;7.35;100.00;99016.97;5047101;28;20960;-78
2023/02/02 10:20:42;;;;;;;7.70;2.00;;;6.80;99.90;;;7.39;100.00;99005.28;5045804;28;20496;-78
2023/02/02 10:23:27;;;;;;;3.60;1.77;;;6.90;99.90;;;7.42;100.00;99018.03;5044959;28;20465;-78
2023/02/02 10:26:05;;;;;;;3.43;1.60;;;6.90;99.90;;;7.42;100.00;99017.22;5047712;28;20473;-78
2023/02/02 10:29:03;;;;;;;7.43;1.70;;;7.00;99.90;;;7.41;100.00;99018.97;5046200;28;20461;-78
2023/02/02 10:31:44;;;;;;;4.30;1.20;;;7.00;99.90;;;7.43;100.00;99014.44;5045394;28;20469;-78
2023/02/02 10:34:23;;;;;;;6.13;1.40;;;7.00;99.90;;;7.45;100.00;99022.94;5047157;28;20493;-78
2023/02/02 10:37:33;;;;;;;5.73;1.47;;;7.00;99.90;;;7.45;100.00;99035.13;5045503;28;20560;-78
2023/02/02 10:40:21;;;;;;;6.67;1.80;;;7.00;99.90;;;7.48;100.00;99022.66;5044640;28;20526;-77
2023/02/02 10:43:46;;;;;;;4.87;1.57;;;7.00;99.90;;;7.50;100.00;99022.50;5044993;28;20468;-77
2023/02/02 10:46:22;;;;;;;2.93;1.60;;;7.10;99.90;;;7.52;100.00;99020.59;5045402;28;21086;-78
2023/02/02 10:49:00;;;;;;;7.67;1.70;;;7.20;99.90;;;7.53;100.00;99028.22;5045914;28;21424;-78
2023/02/02 10:51:31;;;;;;;2.83;1.00;;;7.10;99.90;;;7.57;100.00;99029.59;5045638;28;20508;-78
2023/02/02 10:54:20;;;;;;;2.87;1.50;;;7.10;99.90;;;7.57;100.00;99027.00;5044920;28;20576;-79
2023/02/02 10:56:56;;;;;;;3.47;1.63;;;7.10;99.90;;;7.58;100.00;99031.25;5046130;28;20463;-78
2023/02/02 10:59:32;;;;;;;3.63;1.40;;;7.20;99.90;;;7.58;100.00;99033.00;5046150;28;20496;-78
2023/02/02 11:02:01;;;;;;;4.50;1.50;;;7.00;99.90;;;7.59;100.00;99040.69;5045955;28;20522;-77
2023/02/02 11:07:38;;;;;;;7.20;1.80;;;7.20;99.90;;;7.59;100.00;99045.06;5044988;28;20968;-78
2023/02/02 11:10:09;;;;;;;7.13;1.60;;;7.10;99.90;;;7.64;100.00;99049.81;5045629;28;20461;-79